sensor_id;sensor_type;location;lat;lon;timestamp;pressure;altitude;pressure_sealevel;temperature;humidity
9462;BME280;4769;42.660;23.262;2024-03-23T00:53:24;94041.56;;;7.84;54.26
9462;BME280;4769;42.660;23.262;2024-03-23T00:55:49;94037.91;;;7.73;55.22
9462;BME280;4769;42.660;23.262;2024-03-23T00:58:15;94038.16;;;7.83;55.16
9462;BME280;4769;42.660;23.262;2024-03-23T01:00:40;94033.34;;;7.80;55.17
9462;BME280;4769;42.660;23.262;2024-03-23T01:03:05;94032.94;;;7.54;55.59
9462;BME280;4769;42.660;23.262;2024-03-23T01:05:31;94034.13;;;7.69;55.11
9462;BME280;4769;42.660;23.262;2024-03-23T01:07:56;94029.09;;;7.68;55.19
9462;BME280;4769;42.660;23.262;2024-03-23T01:10:22;94026.16;;;7.76;55.01
9462;BME280;4769;42.660;23.262;2024-03-23T01:12:47;94032.28;;;7.70;54.82
9462;BME280;4769;42.660;23.262;2024-03-23T01:15:12;94024.38;;;7.58;55.11
9462;BME280;4769;42.660;23.262;2024-03-23T01:17:38;94029.75;;;7.63;55.15
9462;BME280;4769;42.660;23.262;2024-03-23T01:20:03;94019.63;;;7.67;54.87
9462;BME280;4769;42.660;23.262;2024-03-23T01:22:29;94019.75;;;7.72;54.56
9462;BME280;4769;42.660;23.262;2024-03-23T01:24:54;94019.66;;;7.78;55.08
9462;BME280;4769;42.660;23.262;2024-03-23T01:27:20;94022.50;;;7.77;55.33
9462;BME280;4769;42.660;23.262;2024-03-23T01:29:45;94029.13;;;7.79;54.06
9462;BME280;4769;42.660;23.262;2024-03-23T01:32:11;94030.72;;;7.80;53.15
9462;BME280;4769;42.660;23.262;2024-03-23T01:34:36;94034.34;;;7.68;53.34
9462;BME280;4769;42.660;23.262;2024-03-23T01:37:01;94032.75;;;7.67;53.91
9462;BME280;4769;42.660;23.262;2024-03-23T01:39:27;94032.22;;;7.47;56.62
9462;BME280;4769;42.660;23.262;2024-03-23T01:41:52;94024.03;;;7.25;57.63
9462;BME280;4769;42.660;23.262;2024-03-23T01:44:18;94026.88;;;7.53;56.90
9462;BME280;4769;42.660;23.262;2024-03-23T01:46:44;94024.47;;;7.52;55.93
9462;BME280;4769;42.660;23.262;2024-03-23T01:49:10;94026.72;;;7.37;55.21
9462;BME280;4769;42.660;23.262;2024-03-23T01:51:36;94028.75;;;6.69;58.32
9462;BME280;4769;42.660;23.262;2024-03-23T01:54:03;94026.00;;;6.46;62.50
9462;BME280;4769;42.660;23.262;2024-03-23T01:56:29;94027.97;;;6.51;62.86
9462;BME280;4769;42.660;23.262;2024-03-23T01:58:55;94025.72;;;6.72;63.24
9462;BME280;4769;42.660;23.262;2024-03-23T02:01:21;94025.84;;;6.95;64.00
9462;BME280;4769;42.660;23.262;2024-03-23T02:03:46;94027.66;;;6.77;66.27
9462;BME280;4769;42.660;23.262;2024-03-23T02:06:11;94031.31;;;6.58;67.37
9462;BME280;4769;42.660;23.262;2024-03-23T02:08:37;94024.97;;;6.65;66.96
9462;BME280;4769;42.660;23.262;2024-03-23T02:11:02;94024.81;;;6.60;66.53
9462;BME280;4769;42.660;23.262;2024-03-23T02:13:28;94031.88;;;6.42;66.55
9462;BME280;4769;42.660;23.262;2024-03-23T02:15:53;94027.66;;;6.77;65.00
9462;BME280;4769;42.660;23.262;2024-03-23T02:18:19;94033.72;;;6.95;61.54
9462;BME280;4769;42.660;23.262;2024-03-23T02:20:44;94033.94;;;6.94;59.35
9462;BME280;4769;42.660;23.262;2024-03-23T02:23:16;94033.78;;;6.53;59.43
9462;BME280;4769;42.660;23.262;2024-03-23T02:25:43;94029.16;;;6.55;59.39
9462;BME280;4769;42.660;23.262;2024-03-23T02:28:08;94035.03;;;6.68;59.34
9462;BME280;4769;42.660;23.262;2024-03-23T02:30:33;94040.19;;;6.75;59.12
9462;BME280;4769;42.660;23.262;2024-03-23T02:32:59;94030.66;;;6.80;59.75
9462;BME280;4769;42.660;23.262;2024-03-23T02:35:25;94029.78;;;6.86;59.44
9462;BME280;4769;42.660;23.262;2024-03-23T02:37:50;94024.75;;;6.85;59.53
9462;BME280;4769;42.660;23.262;2024-03-23T02:40:16;94033.34;;;6.92;59.68
9462;BME280;4769;42.660;23.262;2024-03-23T02:42:42;94029.78;;;6.86;60.61
9462;BME280;4769;42.660;23.262;2024-03-23T02:45:08;94021.84;;;6.93;60.71
9462;BME280;4769;42.660;23.262;2024-03-23T02:47:34;94026.63;;;6.96;61.05
9462;BME280;4769;42.660;23.262;2024-03-23T02:49:59;94025.44;;;7.10;60.40
9462;BME280;4769;42.660;23.262;2024-03-23T02:52:25;94018.56;;;6.97;61.32
9462;BME280;4769;42.660;23.262;2024-03-23T02:54:50;94024.81;;;6.96;60.84
9462;BME280;4769;42.660;23.262;2024-03-23T02:57:16;94019.09;;;6.88;60.82
9462;BME280;4769;42.660;23.262;2024-03-23T02:59:41;94020.91;;;6.87;60.38
9462;BME280;4769;42.660;23.262;2024-03-23T03:02:07;94018.72;;;6.84;60.83
9462;BME280;4769;42.660;23.262;2024-03-23T03:04:32;94019.81;;;6.77;61.21
9462;BME280;4769;42.660;23.262;2024-03-23T03:06:58;94025.50;;;6.74;61.27
9462;BME280;4769;42.660;23.262;2024-03-23T03:09:23;94024.53;;;6.68;61.50
9462;BME280;4769;42.660;23.262;2024-03-23T03:11:49;94024.53;;;6.68;61.66
9462;BME280;4769;42.660;23.262;2024-03-23T03:14:14;94023.75;;;6.68;61.60
9462;BME280;4769;42.660;23.262;2024-03-23T03:16:39;94025.94;;;6.71;61.26
9462;BME280;4769;42.660;23.262;2024-03-23T03:19:05;94028.56;;;6.71;61.76
9462;BME280;4769;42.660;23.262;2024-03-23T03:21:31;94026.94;;;6.70;61.74
9462;BME280;4769;42.660;23.262;2024-03-23T03:23:57;94029.22;;;6.66;61.94
9462;BME280;4769;42.660;23.262;2024-03-23T03:26:23;94024.34;;;6.70;61.50
9462;BME280;4769;42.660;23.262;2024-03-23T03:28:50;94030.47;;;6.64;62.38
9462;BME280;4769;42.660;23.262;2024-03-23T03:31:16;94022.53;;;6.52;63.50
9462;BME280;4769;42.660;23.262;2024-03-23T03:33:42;94030.72;;;6.56;63.04
9462;BME280;4769;42.660;23.262;2024-03-23T03:36:08;94024.41;;;6.63;62.10
9462;BME280;4769;42.660;23.262;2024-03-23T03:38:34;94027.66;;;6.59;62.13
9462;BME280;4769;42.660;23.262;2024-03-23T03:41:03;94016.03;;;6.55;62.48
9462;BME280;4769;42.660;23.262;2024-03-23T03:43:29;94021.03;;;6.56;62.17
9462;BME280;4769;42.660;23.262;2024-03-23T03:45:55;94027.16;;;6.50;62.15
9462;BME280;4769;42.660;23.262;2024-03-23T03:48:22;94031.06;;;6.41;63.32
9462;BME280;4769;42.660;23.262;2024-03-23T03:50:47;94023.81;;;6.43;63.34
9462;BME280;4769;42.660;23.262;2024-03-23T03:53:12;94027.88;;;6.39;63.87
9462;BME280;4769;42.660;23.262;2024-03-23T03:55:38;94029.19;;;6.30;63.86
9462;BME280;4769;42.660;23.262;2024-03-23T03:58:03;94030.09;;;6.18;64.43
9462;BME280;4769;42.660;23.262;2024-03-23T04:00:30;94032.50;;;6.19;64.38
9462;BME280;4769;42.660;23.262;2024-03-23T04:02:56;94028.56;;;6.10;64.36
9462;BME280;4769;42.660;23.262;2024-03-23T04:05:21;94035.09;;;6.01;65.43
9462;BME280;4769;42.660;23.262;2024-03-23T04:07:47;94035.16;;;5.95;65.77
9462;BME280;4769;42.660;23.262;2024-03-23T04:10:13;94030.06;;;6.00;65.40
9462;BME280;4769;42.660;23.262;2024-03-23T04:12:39;94023.81;;;6.01;65.77
9462;BME280;4769;42.660;23.262;2024-03-23T04:15:05;94031.88;;;5.99;65.73
9462;BME280;4769;42.660;23.262;2024-03-23T04:17:31;94045.91;;;6.05;65.49
9462;BME280;4769;42.660;23.262;2024-03-23T04:20:00;94033.63;;;6.05;65.45
9462;BME280;4769;42.660;23.262;2024-03-23T04:22:27;94040.03;;;6.09;65.45
9462;BME280;4769;42.660;23.262;2024-03-23T04:24:58;94037.88;;;6.06;65.56
9462;BME280;4769;42.660;23.262;2024-03-23T04:27:24;94029.63;;;6.03;65.64
9462;BME280;4769;42.660;23.262;2024-03-23T04:29:50;94039.50;;;6.01;66.00
9462;BME280;4769;42.660;23.262;2024-03-23T04:32:16;94037.41;;;6.09;65.99
9462;BME280;4769;42.660;23.262;2024-03-23T04:34:42;94041.81;;;5.91;66.45
9462;BME280;4769;42.660;23.262;2024-03-23T04:37:08;94039.16;;;5.97;66.61
9462;BME280;4769;42.660;23.262;2024-03-23T04:39:35;94038.59;;;5.89;66.63
9462;BME280;4769;42.660;23.262;2024-03-23T04:42:00;94048.84;;;5.90;67.08
9462;BME280;4769;42.660;23.262;2024-03-23T04:44:26;94044.00;;;5.94;66.98
9462;BME280;4769;42.660;23.262;2024-03-23T04:46:51;94043.50;;;6.03;66.77
9462;BME280;4769;42.660;23.262;2024-03-23T04:49:17;94045.22;;;6.16;66.46
9462;BME280;4769;42.660;23.262;2024-03-23T04:51:42;94046.59;;;6.18;66.34
9462;BME280;4769;42.660;23.262;2024-03-23T04:54:14;94049.63;;;6.22;66.77
9462;BME280;4769;42.660;23.262;2024-03-23T04:56:39;94053.31;;;6.32;69.39
9462;BME280;4769;42.660;23.262;2024-03-23T04:59:05;94052.19;;;6.46;67.09
9462;BME280;4769;42.660;23.262;2024-03-23T05:01:33;94059.09;;;6.59;66.48
9462;BME280;4769;42.660;23.262;2024-03-23T05:03:59;94042.38;;;6.60;66.46
9462;BME280;4769;42.660;23.262;2024-03-23T05:06:25;94049.44;;;6.59;66.06
9462;BME280;4769;42.660;23.262;2024-03-23T05:08:51;94045.94;;;6.65;65.93
9462;BME280;4769;42.660;23.262;2024-03-23T05:11:17;94041.63;;;6.53;66.46
9462;BME280;4769;42.660;23.262;2024-03-23T05:13:43;94045.50;;;6.50;66.56
9462;BME280;4769;42.660;23.262;2024-03-23T05:16:08;94045.94;;;6.47;66.23
9462;BME280;4769;42.660;23.262;2024-03-23T05:18:34;94038.00;;;6.54;66.63
9462;BME280;4769;42.660;23.262;2024-03-23T05:21:00;94048.34;;;6.67;66.51
9462;BME280;4769;42.660;23.262;2024-03-23T05:23:26;94039.19;;;6.76;66.27
9462;BME280;4769;42.660;23.262;2024-03-23T05:25:58;94037.38;;;7.24;78.86
9462;BME280;4769;42.660;23.262;2024-03-23T05:28:24;94037.50;;;7.99;72.68
9462;BME280;4769;42.660;23.262;2024-03-23T05:30:55;94028.47;;;8.07;66.57
9462;BME280;4769;42.660;23.262;2024-03-23T05:33:22;94026.31;;;7.92;64.93
9462;BME280;4769;42.660;23.262;2024-03-23T05:35:59;94035.03;;;8.73;73.68
9462;BME280;4769;42.660;23.262;2024-03-23T05:38:25;94033.56;;;8.66;64.97
9462;BME280;4769;42.660;23.262;2024-03-23T05:40:57;94039.63;;;8.55;62.95
9462;BME280;4769;42.660;23.262;2024-03-23T05:43:23;94038.69;;;8.49;64.36
9462;BME280;4769;42.660;23.262;2024-03-23T05:45:59;94051.41;;;8.41;63.69
9462;BME280;4769;42.660;23.262;2024-03-23T05:48:30;94043.50;;;8.41;65.11
9462;BME280;4769;42.660;23.262;2024-03-23T05:50:56;94038.97;;;8.07;64.29
9462;BME280;4769;42.660;23.262;2024-03-23T05:53:22;94044.06;;;8.31;70.70
9462;BME280;4769;42.660;23.262;2024-03-23T05:55:48;94043.97;;;8.49;65.36
9462;BME280;4769;42.660;23.262;2024-03-23T05:58:15;94047.03;;;8.23;63.99
9462;BME280;4769;42.660;23.262;2024-03-23T06:00:41;94037.00;;;8.43;65.61
9462;BME280;4769;42.660;23.262;2024-03-23T06:03:13;94042.59;;;8.58;63.55
9462;BME280;4769;42.660;23.262;2024-03-23T06:05:38;94037.31;;;8.81;66.77
9462;BME280;4769;42.660;23.262;2024-03-23T06:08:04;94040.38;;;8.90;63.25
9462;BME280;4769;42.660;23.262;2024-03-23T06:10:30;94035.09;;;8.90;62.44
9462;BME280;4769;42.660;23.262;2024-03-23T06:12:56;94038.97;;;8.99;62.30
9462;BME280;4769;42.660;23.262;2024-03-23T06:15:22;94032.00;;;9.04;61.93
9462;BME280;4769;42.660;23.262;2024-03-23T06:17:48;94034.72;;;9.09;61.02
9462;BME280;4769;42.660;23.262;2024-03-23T06:20:14;94031.06;;;9.10;60.89
9462;BME280;4769;42.660;23.262;2024-03-23T06:22:39;94027.16;;;9.13;61.41
9462;BME280;4769;42.660;23.262;2024-03-23T06:25:05;94036.44;;;9.15;61.17
9462;BME280;4769;42.660;23.262;2024-03-23T06:27:32;94031.78;;;9.06;61.00
9462;BME280;4769;42.660;23.262;2024-03-23T06:30:01;94029.13;;;9.17;63.46
9462;BME280;4769;42.660;23.262;2024-03-23T06:32:27;94035.81;;;9.36;60.94
9462;BME280;4769;42.660;23.262;2024-03-23T06:34:54;94030.72;;;9.46;60.44
9462;BME280;4769;42.660;23.262;2024-03-23T06:37:20;94027.22;;;9.57;59.82
9462;BME280;4769;42.660;23.262;2024-03-23T06:39:46;94028.22;;;9.40;60.38
9462;BME280;4769;42.660;23.262;2024-03-23T06:42:12;94028.22;;;9.68;60.21
9462;BME280;4769;42.660;23.262;2024-03-23T06:44:37;94023.94;;;9.78;59.60
9462;BME280;4769;42.660;23.262;2024-03-23T06:47:03;94024.88;;;9.89;59.25
9462;BME280;4769;42.660;23.262;2024-03-23T06:49:28;94036.78;;;9.91;59.15
9462;BME280;4769;42.660;23.262;2024-03-23T06:51:53;94033.28;;;10.02;58.82
9462;BME280;4769;42.660;23.262;2024-03-23T06:54:19;94026.94;;;10.15;60.10
9462;BME280;4769;42.660;23.262;2024-03-23T06:56:45;94027.31;;;10.23;58.49
9462;BME280;4769;42.660;23.262;2024-03-23T06:59:10;94029.31;;;10.49;57.46
9462;BME280;4769;42.660;23.262;2024-03-23T07:01:36;94029.09;;;10.51;57.76
9462;BME280;4769;42.660;23.262;2024-03-23T07:04:01;94024.88;;;10.88;56.21
9462;BME280;4769;42.660;23.262;2024-03-23T07:06:27;94018.56;;;11.10;56.17
9462;BME280;4769;42.660;23.262;2024-03-23T07:08:53;94018.00;;;11.08;55.49
9462;BME280;4769;42.660;23.262;2024-03-23T07:11:22;94017.63;;;11.21;55.11
9462;BME280;4769;42.660;23.262;2024-03-23T07:13:52;94016.97;;;11.31;54.16
9462;BME280;4769;42.660;23.262;2024-03-23T07:16:19;94013.88;;;11.39;52.71
9462;BME280;4769;42.660;23.262;2024-03-23T07:18:45;94014.28;;;11.52;51.81
9462;BME280;4769;42.660;23.262;2024-03-23T07:21:10;94009.47;;;11.71;51.76
9462;BME280;4769;42.660;23.262;2024-03-23T07:23:36;94005.84;;;11.50;51.14
9462;BME280;4769;42.660;23.262;2024-03-23T07:26:03;94006.19;;;11.59;51.17
9462;BME280;4769;42.660;23.262;2024-03-23T07:28:29;93999.09;;;11.86;50.63
9462;BME280;4769;42.660;23.262;2024-03-23T07:31:05;93998.22;;;11.80;50.34
9462;BME280;4769;42.660;23.262;2024-03-23T07:33:32;93997.81;;;11.93;49.82
9462;BME280;4769;42.660;23.262;2024-03-23T07:35:57;93997.78;;;12.20;48.87
9462;BME280;4769;42.660;23.262;2024-03-23T07:38:25;93997.84;;;12.30;48.97
9462;BME280;4769;42.660;23.262;2024-03-23T07:40:51;93999.22;;;12.37;48.81
9462;BME280;4769;42.660;23.262;2024-03-23T07:43:21;93997.41;;;12.38;48.79
9462;BME280;4769;42.660;23.262;2024-03-23T07:45:52;93998.44;;;12.37;48.28
9462;BME280;4769;42.660;23.262;2024-03-23T07:48:21;93997.81;;;12.25;48.58
9462;BME280;4769;42.660;23.262;2024-03-23T07:51:07;93991.66;;;12.51;47.70
9462;BME280;4769;42.660;23.262;2024-03-23T07:53:33;93991.69;;;12.56;47.15
9462;BME280;4769;42.660;23.262;2024-03-23T07:56:00;93986.97;;;12.63;46.99
9462;BME280;4769;42.660;23.262;2024-03-23T07:58:26;93983.69;;;12.87;46.18
9462;BME280;4769;42.660;23.262;2024-03-23T08:00:54;93992.00;;;12.23;48.16
9462;BME280;4769;42.660;23.262;2024-03-23T08:03:20;93999.03;;;12.49;47.18
9462;BME280;4769;42.660;23.262;2024-03-23T08:05:46;93988.00;;;12.57;47.34
9462;BME280;4769;42.660;23.262;2024-03-23T08:08:12;93987.59;;;12.80;46.12
9462;BME280;4769;42.660;23.262;2024-03-23T08:10:47;93976.91;;;13.06;46.50
9462;BME280;4769;42.660;23.262;2024-03-23T08:13:12;93978.59;;;13.27;45.70
9462;BME280;4769;42.660;23.262;2024-03-23T08:15:38;93974.75;;;13.85;44.32
9462;BME280;4769;42.660;23.262;2024-03-23T08:18:04;93976.41;;;14.31;43.56
9462;BME280;4769;42.660;23.262;2024-03-23T08:20:30;93974.50;;;14.62;42.13
9462;BME280;4769;42.660;23.262;2024-03-23T08:22:55;93964.72;;;14.52;41.94
9462;BME280;4769;42.660;23.262;2024-03-23T08:25:21;93966.59;;;14.37;41.96
9462;BME280;4769;42.660;23.262;2024-03-23T08:27:46;93966.34;;;14.23;48.55
9462;BME280;4769;42.660;23.262;2024-03-23T08:30:12;93967.91;;;14.39;42.48
9462;BME280;4769;42.660;23.262;2024-03-23T08:32:37;93959.38;;;14.62;41.61
9462;BME280;4769;42.660;23.262;2024-03-23T08:35:04;93959.91;;;14.64;41.43
9462;BME280;4769;42.660;23.262;2024-03-23T08:37:29;93958.75;;;15.05;41.23
9462;BME280;4769;42.660;23.262;2024-03-23T08:39:55;93954.94;;;15.36;39.31
9462;BME280;4769;42.660;23.262;2024-03-23T08:42:20;93958.03;;;15.58;38.88
9462;BME280;4769;42.660;23.262;2024-03-23T08:44:47;93944.50;;;15.93;38.37
9462;BME280;4769;42.660;23.262;2024-03-23T08:47:17;93946.66;;;15.91;38.25
9462;BME280;4769;42.660;23.262;2024-03-23T08:49:44;93947.94;;;16.32;37.07
9462;BME280;4769;42.660;23.262;2024-03-23T08:52:10;93939.56;;;16.44;36.32
9462;BME280;4769;42.660;23.262;2024-03-23T08:54:35;93935.41;;;16.66;36.75
9462;BME280;4769;42.660;23.262;2024-03-23T08:57:00;93931.03;;;16.75;36.65
9462;BME280;4769;42.660;23.262;2024-03-23T08:59:26;93928.50;;;16.89;35.31
9462;BME280;4769;42.660;23.262;2024-03-23T09:01:52;93928.06;;;16.82;35.28
9462;BME280;4769;42.660;23.262;2024-03-23T09:04:18;93922.63;;;16.40;35.87
9462;BME280;4769;42.660;23.262;2024-03-23T09:06:43;93925.91;;;16.55;36.14
9462;BME280;4769;42.660;23.262;2024-03-23T09:09:09;93917.84;;;17.12;34.85
9462;BME280;4769;42.660;23.262;2024-03-23T09:11:34;93914.81;;;17.42;34.31
9462;BME280;4769;42.660;23.262;2024-03-23T09:14:00;93900.94;;;17.82;33.48
9462;BME280;4769;42.660;23.262;2024-03-23T09:16:25;93899.75;;;18.07;33.28
9462;BME280;4769;42.660;23.262;2024-03-23T09:18:51;93903.19;;;18.26;33.04
9462;BME280;4769;42.660;23.262;2024-03-23T09:21:17;93893.34;;;18.08;32.84
9462;BME280;4769;42.660;23.262;2024-03-23T09:23:43;93885.47;;;18.48;32.32
9462;BME280;4769;42.660;23.262;2024-03-23T09:26:09;93884.59;;;18.80;31.92
9462;BME280;4769;42.660;23.262;2024-03-23T09:28:35;93878.38;;;18.57;32.14
9462;BME280;4769;42.660;23.262;2024-03-23T09:31:07;93879.38;;;18.61;32.26
9462;BME280;4769;42.660;23.262;2024-03-23T09:33:34;93872.44;;;18.87;31.68
9462;BME280;4769;42.660;23.262;2024-03-23T09:36:03;93873.13;;;19.06;31.03
9462;BME280;4769;42.660;23.262;2024-03-23T09:38:29;93871.38;;;19.02;31.46
9462;BME280;4769;42.660;23.262;2024-03-23T09:40:54;93865.72;;;19.30;30.93
9462;BME280;4769;42.660;23.262;2024-03-23T09:43:20;93849.19;;;19.64;30.25
9462;BME280;4769;42.660;23.262;2024-03-23T09:45:46;93853.19;;;19.88;29.71
9462;BME280;4769;42.660;23.262;2024-03-23T09:48:12;93848.75;;;20.28;29.27
9462;BME280;4769;42.660;23.262;2024-03-23T09:50:42;93844.66;;;20.52;28.38
9462;BME280;4769;42.660;23.262;2024-03-23T09:53:08;93843.94;;;20.69;28.13
9462;BME280;4769;42.660;23.262;2024-03-23T09:55:34;93843.72;;;20.26;28.49
9462;BME280;4769;42.660;23.262;2024-03-23T09:58:03;93838.75;;;20.42;29.24
9462;BME280;4769;42.660;23.262;2024-03-23T10:00:31;93832.09;;;20.61;28.67
9462;BME280;4769;42.660;23.262;2024-03-23T10:02:57;93821.63;;;20.82;27.86
9462;BME280;4769;42.660;23.262;2024-03-23T10:05:30;93817.38;;;20.89;27.50
9462;BME280;4769;42.660;23.262;2024-03-23T10:10:43;93807.13;;;21.47;26.93
9462;BME280;4769;42.660;23.262;2024-03-23T10:13:09;93804.91;;;21.66;25.97
9462;BME280;4769;42.660;23.262;2024-03-23T10:15:36;93797.59;;;21.07;26.46
9462;BME280;4769;42.660;23.262;2024-03-23T10:18:20;93799.53;;;21.24;26.36
9462;BME280;4769;42.660;23.262;2024-03-23T10:21:07;93793.63;;;20.96;26.03
9462;BME280;4769;42.660;23.262;2024-03-23T10:23:40;93785.16;;;21.37;25.63
9462;BME280;4769;42.660;23.262;2024-03-23T10:26:22;93788.50;;;21.51;25.39
9462;BME280;4769;42.660;23.262;2024-03-23T10:28:57;93786.94;;;21.75;25.02
9462;BME280;4769;42.660;23.262;2024-03-23T10:31:25;93775.88;;;21.43;25.90
9462;BME280;4769;42.660;23.262;2024-03-23T10:33:51;93770.34;;;21.22;25.76
9462;BME280;4769;42.660;23.262;2024-03-23T10:36:23;93769.72;;;21.59;26.00
9462;BME280;4769;42.660;23.262;2024-03-23T10:38:54;93768.00;;;21.80;24.71
9462;BME280;4769;42.660;23.262;2024-03-23T10:41:19;93764.81;;;21.36;24.82
9462;BME280;4769;42.660;23.262;2024-03-23T10:43:46;93753.25;;;20.93;25.24
9462;BME280;4769;42.660;23.262;2024-03-23T10:46:12;93751.88;;;21.55;24.75
9462;BME280;4769;42.660;23.262;2024-03-23T10:48:38;93743.84;;;21.89;24.63
9462;BME280;4769;42.660;23.262;2024-03-23T10:51:06;93741.72;;;20.92;25.86
9462;BME280;4769;42.660;23.262;2024-03-23T10:53:33;93736.56;;;21.64;25.67
9462;BME280;4769;42.660;23.262;2024-03-23T10:55:59;93733.09;;;22.43;24.78
9462;BME280;4769;42.660;23.262;2024-03-23T10:58:51;93723.44;;;22.05;24.32
9462;BME280;4769;42.660;23.262;2024-03-23T11:01:18;93718.78;;;21.34;24.71
9462;BME280;4769;42.660;23.262;2024-03-23T11:03:46;93713.41;;;21.34;24.92
9462;BME280;4769;42.660;23.262;2024-03-23T11:06:38;93705.50;;;21.37;24.72
9462;BME280;4769;42.660;23.262;2024-03-23T11:09:43;93706.59;;;21.28;24.85
9462;BME280;4769;42.660;23.262;2024-03-23T11:14:51;93685.47;;;23.10;23.23
9462;BME280;4769;42.660;23.262;2024-03-23T11:17:23;93683.41;;;23.36;22.86
9462;BME280;4769;42.660;23.262;2024-03-23T11:20:02;93683.91;;;24.04;22.20
9462;BME280;4769;42.660;23.262;2024-03-23T11:25:18;93672.88;;;22.15;23.46
9462;BME280;4769;42.660;23.262;2024-03-23T11:27:46;93673.94;;;23.30;22.50
9462;BME280;4769;42.660;23.262;2024-03-23T11:30:13;93670.53;;;24.07;21.79
9462;BME280;4769;42.660;23.262;2024-03-23T11:32:39;93661.28;;;24.29;21.91
9462;BME280;4769;42.660;23.262;2024-03-23T11:35:05;93661.31;;;23.63;20.24
9462;BME280;4769;42.660;23.262;2024-03-23T11:37:31;93653.44;;;23.58;20.16
9462;BME280;4769;42.660;23.262;2024-03-23T11:39:56;93652.53;;;22.72;20.66
9462;BME280;4769;42.660;23.262;2024-03-23T11:42:22;93641.63;;;23.83;20.27
9462;BME280;4769;42.660;23.262;2024-03-23T11:44:47;93631.03;;;23.54;19.66
9462;BME280;4769;42.660;23.262;2024-03-23T11:47:13;93624.31;;;24.77;19.46
9462;BME280;4769;42.660;23.262;2024-03-23T11:49:38;93626.34;;;24.44;18.32
9462;BME280;4769;42.660;23.262;2024-03-23T11:52:06;93617.03;;;24.78;18.55
9462;BME280;4769;42.660;23.262;2024-03-23T11:54:32;93604.25;;;24.63;18.36
9462;BME280;4769;42.660;23.262;2024-03-23T11:57:00;93599.47;;;24.96;18.39
9462;BME280;4769;42.660;23.262;2024-03-23T11:59:39;93602.69;;;23.36;18.13
9462;BME280;4769;42.660;23.262;2024-03-23T12:02:10;93594.34;;;21.81;18.53
9462;BME280;4769;42.660;23.262;2024-03-23T12:04:36;93590.13;;;22.38;18.34
9462;BME280;4769;42.660;23.262;2024-03-23T12:09:38;93581.19;;;21.96;17.99
9462;BME280;4769;42.660;23.262;2024-03-23T12:14:36;93564.72;;;22.06;17.81
9462;BME280;4769;42.660;23.262;2024-03-23T12:17:09;93570.72;;;21.57;18.88
9462;BME280;4769;42.660;23.262;2024-03-23T12:19:35;93571.50;;;21.75;18.81
9462;BME280;4769;42.660;23.262;2024-03-23T12:22:00;93567.91;;;22.00;18.26
9462;BME280;4769;42.660;23.262;2024-03-23T12:24:27;93563.81;;;21.94;18.01
9462;BME280;4769;42.660;23.262;2024-03-23T12:26:53;93556.28;;;21.79;18.33
9462;BME280;4769;42.660;23.262;2024-03-23T12:29:18;93558.22;;;20.81;18.46
9462;BME280;4769;42.660;23.262;2024-03-23T12:31:44;93542.78;;;21.58;18.41
9462;BME280;4769;42.660;23.262;2024-03-23T12:34:09;93548.06;;;21.29;18.73
9462;BME280;4769;42.660;23.262;2024-03-23T12:36:34;93547.41;;;21.49;18.09
9462;BME280;4769;42.660;23.262;2024-03-23T12:39:00;93544.97;;;21.10;18.83
9462;BME280;4769;42.660;23.262;2024-03-23T12:41:25;93542.44;;;21.22;18.74
9462;BME280;4769;42.660;23.262;2024-03-23T12:43:51;93546.81;;;21.35;19.03
9462;BME280;4769;42.660;23.262;2024-03-23T12:46:16;93534.38;;;20.88;19.48
9462;BME280;4769;42.660;23.262;2024-03-23T12:48:44;93541.94;;;21.66;18.14
9462;BME280;4769;42.660;23.262;2024-03-23T12:51:10;93528.41;;;21.00;18.50
9462;BME280;4769;42.660;23.262;2024-03-23T12:53:35;93523.22;;;21.03;18.78
9462;BME280;4769;42.660;23.262;2024-03-23T12:56:01;93509.03;;;20.77;18.70
9462;BME280;4769;42.660;23.262;2024-03-23T12:58:26;93520.41;;;21.46;18.62
9462;BME280;4769;42.660;23.262;2024-03-23T13:00:52;93515.84;;;21.46;18.84
9462;BME280;4769;42.660;23.262;2024-03-23T13:03:17;93513.97;;;21.47;18.89
9462;BME280;4769;42.660;23.262;2024-03-23T13:05:43;93516.84;;;21.79;18.46
9462;BME280;4769;42.660;23.262;2024-03-23T13:08:08;93505.88;;;22.63;18.57
9462;BME280;4769;42.660;23.262;2024-03-23T13:10:33;93506.47;;;21.69;18.78
9462;BME280;4769;42.660;23.262;2024-03-23T13:12:59;93506.22;;;20.99;19.35
9462;BME280;4769;42.660;23.262;2024-03-23T13:15:24;93492.59;;;21.96;18.46
9462;BME280;4769;42.660;23.262;2024-03-23T13:17:49;93486.50;;;23.91;17.18
9462;BME280;4769;42.660;23.262;2024-03-23T13:20:15;93476.69;;;25.02;16.11
9462;BME280;4769;42.660;23.262;2024-03-23T13:22:41;93484.88;;;23.42;17.21
9462;BME280;4769;42.660;23.262;2024-03-23T13:25:07;93483.88;;;23.14;17.30
9462;BME280;4769;42.660;23.262;2024-03-23T13:27:33;93473.81;;;24.04;17.05
9462;BME280;4769;42.660;23.262;2024-03-23T13:29:58;93478.59;;;24.86;16.56
9462;BME280;4769;42.660;23.262;2024-03-23T13:32:24;93479.50;;;23.54;16.71
9462;BME280;4769;42.660;23.262;2024-03-23T13:34:49;93472.59;;;24.01;16.76
9462;BME280;4769;42.660;23.262;2024-03-23T13:37:16;93470.56;;;23.98;17.34
9462;BME280;4769;42.660;23.262;2024-03-23T13:39:41;93470.41;;;24.31;17.26
9462;BME280;4769;42.660;23.262;2024-03-23T13:42:09;93462.81;;;25.15;16.71
9462;BME280;4769;42.660;23.262;2024-03-23T13:44:34;93454.31;;;25.91;15.82
9462;BME280;4769;42.660;23.262;2024-03-23T13:47:01;93455.06;;;23.71;16.90
9462;BME280;4769;42.660;23.262;2024-03-23T13:49:29;93447.47;;;24.76;16.86
9462;BME280;4769;42.660;23.262;2024-03-23T13:51:56;93449.81;;;26.64;15.59
9462;BME280;4769;42.660;23.262;2024-03-23T13:54:28;93440.91;;;27.01;15.27
9462;BME280;4769;42.660;23.262;2024-03-23T13:56:55;93437.34;;;26.97;15.34
9462;BME280;4769;42.660;23.262;2024-03-23T13:59:21;93439.31;;;27.38;14.73
9462;BME280;4769;42.660;23.262;2024-03-23T14:01:48;93439.56;;;28.01;14.85
9462;BME280;4769;42.660;23.262;2024-03-23T14:04:14;93423.97;;;29.42;14.08
9462;BME280;4769;42.660;23.262;2024-03-23T14:06:42;93414.72;;;30.51;13.32
9462;BME280;4769;42.660;23.262;2024-03-23T14:09:08;93411.22;;;31.64;12.98
9462;BME280;4769;42.660;23.262;2024-03-23T14:11:38;93399.53;;;32.51;12.36
9462;BME280;4769;42.660;23.262;2024-03-23T14:14:06;93409.31;;;31.96;12.38
9462;BME280;4769;42.660;23.262;2024-03-23T14:16:34;93407.97;;;26.77;15.33
9462;BME280;4769;42.660;23.262;2024-03-23T14:19:00;93419.47;;;25.70;16.08